Pearl Of Scandinavia — OWFU2 — position and weather

sailwx.info

Track history (hours):
 
Tides and Currents Weather Stations Pressure Air Temp Water Temp Dewpoint Dewpoint Depression Visibility Wind Speed Wind Dir Waves Ship Positions

Pearl Of Scandinavia

Last reported at 2017-Jun-26 22:30 UTC. Time now 2017-Jun-26 22:32 UTC.
Position N 57°29' E 011°27'.

Length 176.4 m; beam 34 m; draft 6.215 m.

Type: Ship. MMSI: 219945000.

Date/timePositionNaut miles runAvg speedWind from/ knotsBaromVisibWave heightAir tempDewpointWater temp
2017-Jun-26 22:30N 57°29' E 011°27'917.0
2017-Jun-26 22:00N 57°21' E 011°32'817.1
2017-Jun-26 21:30N 57°13' E 011°36'816.5
2017-Jun-26 21:00N 57°05' E 011°41'5915.0
2017-Jun-26 17:06N 56°13' E 012°29'115.0
2017-Jun-26 17:00N 56°12' E 012°30'714.7
2017-Jun-26 16:30N 56°05' E 012°36'713.8
2017-Jun-26 16:01N 55°59' E 012°42'715.0
2017-Jun-26 15:31N 55°52' E 012°45'714.4
2017-Jun-26 15:01N 55°45' E 012°41'4 7.0
2017-Jun-26 14:28N 55°42' E 012°36'0 0.0
2017-Jun-26 13:28N 55°42' E 012°36'0 0.0
2017-Jun-26 12:58N 55°42' E 012°36'0 0.0
2017-Jun-26 12:28N 55°42' E 012°36'0 0.0
2017-Jun-26 11:58N 55°42' E 012°36'0 0.0
2017-Jun-26 11:28N 55°42' E 012°36'0 0.0
2017-Jun-26 10:58N 55°42' E 012°36'0 0.0
2017-Jun-26 10:28N 55°42' E 012°36'0 0.0
2017-Jun-26 09:58N 55°42' E 012°36'0 0.0
2017-Jun-26 09:28N 55°42' E 012°36'0 0.0
2017-Jun-26 08:58N 55°42' E 012°36'0 0.0
2017-Jun-26 08:28N 55°42' E 012°36'0 0.0
2017-Jun-26 07:58N 55°42' E 012°36'0 0.7
2017-Jun-26 07:31N 55°42' E 012°36'510.1
2017-Jun-26 07:00N 55°46' E 012°41'714.7
2017-Jun-26 06:30N 55°54' E 012°40'815.3
2017-Jun-26 06:00N 56°01' E 012°40'816.6
2017-Jun-26 05:30N 56°08' E 012°30'816.0
2017-Jun-26 05:00N 56°15' E 012°25'815.7
2017-Jun-26 04:30N 56°23' E 012°20'915.8
2017-Jun-26 03:55N 56°32' E 012°15'4516.4
2017-Jun-26 01:12N 57°14' E 011°52'517.3
2017-Jun-26 00:56N 57°18' E 011°47'817.7
2017-Jun-26 00:30N 57°25' E 011°40'917.3
2017-Jun-26 00:00N 57°32' E 011°32'917.1
2017-Jun-25 23:31N 57°40' E 011°26'816.9
2017-Jun-25 23:00N 57°48' E 011°20'816.8
2017-Jun-25 22:30N 57°56' E 011°15'815.9
2017-Jun-25 22:00N 58°03' E 011°09'815.7
2017-Jun-25 21:30N 58°11' E 011°04'816.1
2017-Jun-25 21:00N 58°19' E 011°00'815.3
2017-Jun-25 20:30N 58°26' E 010°56'1614.3
2017-Jun-25 19:23N 58°41' E 010°48'514.5
2017-Jun-25 19:00N 58°47' E 010°46'714.5
2017-Jun-25 18:31N 58°54' E 010°43'714.8
2017-Jun-25 18:01N 59°01' E 010°42'815.4
2017-Jun-25 17:31N 59°09' E 010°39'816.6
2017-Jun-25 17:01N 59°17' E 010°36'816.9
2017-Jun-25 16:31N 59°25' E 010°33'816.3
2017-Jun-25 16:01N 59°33' E 010°37'815.2
2017-Jun-25 15:30N 59°41' E 010°37'714.8
2017-Jun-25 15:01N 59°48' E 010°34'814.9
2017-Jun-25 14:30N 59°54' E 010°43'1 0.9
2017-Jun-25 13:28N 59°54' E 010°45'0 0.0
2017-Jun-25 12:58N 59°54' E 010°45'0 0.0
2017-Jun-25 12:28N 59°54' E 010°45'0 0.0
2017-Jun-25 11:58N 59°54' E 010°45'0 0.0
2017-Jun-25 11:28N 59°54' E 010°45'0 0.0
2017-Jun-25 10:58N 59°54' E 010°45'0 0.0
2017-Jun-25 10:28N 59°54' E 010°45'0 0.0
2017-Jun-25 09:58N 59°54' E 010°45'0 0.0
2017-Jun-25 09:28N 59°54' E 010°45'0 0.0
2017-Jun-25 08:58N 59°54' E 010°45'0 0.0
2017-Jun-25 08:28N 59°54' E 010°45'0 0.0
2017-Jun-25 07:58N 59°54' E 010°45'1 1.3
2017-Jun-25 07:30N 59°54' E 010°44'611.7
2017-Jun-25 07:00N 59°50' E 010°36'714.3
2017-Jun-25 06:30N 59°43' E 010°36'713.8
2017-Jun-25 06:00N 59°36' E 010°38'714.9
2017-Jun-25 05:30N 59°29' E 010°34'816.3
2017-Jun-25 05:00N 59°21' E 010°36'917.1
2017-Jun-25 04:30N 59°12' E 010°39'816.6
2017-Jun-25 04:00N 59°04' E 010°41'816.4
2017-Jun-25 03:30N 58°56' E 010°44'816.2
2017-Jun-25 03:00N 58°48' E 010°46'816.1
2017-Jun-25 02:30N 58°40' E 010°49'816.2
2017-Jun-25 02:00N 58°32' E 010°51'816.8
2017-Jun-25 01:30N 58°24' E 010°56'917.1
2017-Jun-25 01:00N 58°16' E 011°01'917.0
2017-Jun-25 00:30N 58°07' E 011°06'816.4
2017-Jun-25 00:00N 57°60' E 011°10'816.1
2017-Jun-24 23:30N 57°52' E 011°15'815.8
2017-Jun-24 22:59N 57°44' E 011°19'816.4
2017-Jun-24 22:30N 57°37' E 011°24'816.3
2017-Jun-24 22:00N 57°29' E 011°28'816.3
2017-Jun-24 21:30N 57°21' E 011°33'816.6
2017-Jun-24 21:00N 57°13' E 011°37'816.3
2017-Jun-24 20:30N 57°05' E 011°42'5816.0
2017-Jun-24 16:53N 56°13' E 012°28'616.3
2017-Jun-24 16:30N 56°08' E 012°32'815.1
2017-Jun-24 16:00N 56°02' E 012°40'816.2
2017-Jun-24 15:30N 55°54' E 012°44'815.5
2017-Jun-24 15:00N 55°46' E 012°42'5 5.2
2017-Jun-24 14:00N 55°42' E 012°36'0 0.0
2017-Jun-24 13:30N 55°42' E 012°36'0 0.0
2017-Jun-24 13:00N 55°42' E 012°36'0 0.0
2017-Jun-24 12:30N 55°42' E 012°36'0 0.0
2017-Jun-24 12:00N 55°42' E 012°36'0 0.0
2017-Jun-24 11:30N 55°42' E 012°36'0 0.0
2017-Jun-24 11:00N 55°42' E 012°36'0 0.0
2017-Jun-24 10:30N 55°42' E 012°36'0 0.0
2017-Jun-24 10:00N 55°42' E 012°36'0 0.0
2017-Jun-24 09:30N 55°42' E 012°36'0 0.0
2017-Jun-24 09:00N 55°42' E 012°36'0 0.0
2017-Jun-24 08:30N 55°42' E 012°36'0 0.0
2017-Jun-24 08:00N 55°42' E 012°36'0 0.6
2017-Jun-24 07:31N 55°42' E 012°36'611.5
2017-Jun-24 07:00N 55°47' E 012°42'714.9
2017-Jun-24 06:30N 55°55' E 012°39'815.2
2017-Jun-24 06:00N 56°02' E 012°39'815.7
2017-Jun-24 05:30N 56°08' E 012°30'815.5
2017-Jun-24 05:00N 56°15' E 012°25'816.2
2017-Jun-24 04:30N 56°23' E 012°20'816.1
2017-Jun-24 04:00N 56°31' E 012°16'4716.0
2017-Jun-24 01:04N 57°15' E 011°49'116.6
2017-Jun-24 00:59N 57°17' E 011°48'816.4
2017-Jun-24 00:30N 57°23' E 011°40'816.4
2017-Jun-24 00:00N 57°30' E 011°32'816.7
2017-Jun-23 23:30N 57°38' E 011°26'816.9
2017-Jun-23 23:00N 57°46' E 011°20'917.0
2017-Jun-23 22:30N 57°54' E 011°14'1017.3
2017-Jun-23 21:56N 58°03' E 011°09'817.5
2017-Jun-23 21:28N 58°11' E 011°05'816.9
2017-Jun-23 21:00N 58°18' E 011°01'916.0
2017-Jun-23 20:25N 58°27' E 010°55'615.7
2017-Jun-23 20:00N 58°34' E 010°52'816.3
2017-Jun-23 19:30N 58°41' E 010°48'816.6
2017-Jun-23 19:00N 58°50' E 010°44'817.0
2017-Jun-23 18:30N 58°58' E 010°41'816.9
2017-Jun-23 18:00N 59°06' E 010°39'917.1
2017-Jun-23 17:30N 59°15' E 010°37'917.1
2017-Jun-23 17:00N 59°23' E 010°33'816.6
2017-Jun-23 16:30N 59°31' E 010°35'713.8
2017-Jun-23 16:00N 59°38' E 010°37'713.6
2017-Jun-23 15:30N 59°45' E 010°33'816.0
2017-Jun-23 15:00N 59°52' E 010°38'4 3.7
2017-Jun-23 14:00N 59°54' E 010°45'0 0.0
2017-Jun-23 13:30N 59°54' E 010°45'0 0.0
2017-Jun-23 13:00N 59°54' E 010°45'0 0.0
2017-Jun-23 12:30N 59°54' E 010°45'0 0.0
2017-Jun-23 12:00N 59°54' E 010°45'0 0.0
2017-Jun-23 11:30N 59°54' E 010°45'0 0.0
2017-Jun-23 11:00N 59°54' E 010°45'0 0.0
2017-Jun-23 10:30N 59°54' E 010°45'0 0.0
2017-Jun-23 10:00N 59°54' E 010°45'0 0.0
2017-Jun-23 09:30N 59°54' E 010°45'0 0.0
2017-Jun-23 09:00N 59°54' E 010°45'0 0.0
2017-Jun-23 08:30N 59°54' E 010°45'0 0.0
2017-Jun-23 08:00N 59°54' E 010°45'0 1.0
2017-Jun-23 07:30N 59°54' E 010°44'714.5
2017-Jun-23 07:00N 59°49' E 010°35'714.8
2017-Jun-23 06:30N 59°41' E 010°36'713.2
2017-Jun-23 06:00N 59°35' E 010°38'815.9
2017-Jun-23 05:30N 59°27' E 010°34'816.1
2017-Jun-23 05:00N 59°19' E 010°36'816.3
2017-Jun-23 04:30N 59°11' E 010°39'815.9
2017-Jun-23 04:00N 59°03' E 010°38'815.7
2017-Jun-23 03:30N 58°55' E 010°36'815.9
2017-Jun-23 03:00N 58°47' E 010°35'816.5
2017-Jun-23 02:30N 58°39' E 010°33'816.6
2017-Jun-23 02:00N 58°31' E 010°37'916.8
2017-Jun-23 01:27N 58°22' E 010°42'1716.3
2017-Jun-23 00:25N 58°06' E 010°52'716.5
2017-Jun-22 23:59N 57°60' E 010°57'916.2
2017-Jun-22 23:26N 57°51' E 011°02'716.2
2017-Jun-22 22:59N 57°44' E 011°07'815.9
2017-Jun-22 22:30N 57°38' E 011°15'816.3
2017-Jun-22 22:00N 57°32' E 011°25'816.2
2017-Jun-22 21:30N 57°24' E 011°30'816.3
2017-Jun-22 21:01N 57°17' E 011°36'916.4
2017-Jun-22 20:29N 57°09' E 011°41'816.5
2017-Jun-22 20:01N 57°01' E 011°45'916.4
2017-Jun-22 19:28N 56°53' E 011°51'816.8
2017-Jun-22 19:00N 56°46' E 011°59'916.3
2017-Jun-22 18:27N 56°38' E 012°07'716.4
2017-Jun-22 18:00N 56°32' E 012°13'1016.3
2017-Jun-22 17:25N 56°23' E 012°20'916.7
2017-Jun-22 16:54N 56°15' E 012°26'716.6
2017-Jun-22 16:30N 56°09' E 012°31'917.6
2017-Jun-22 16:00N 56°02' E 012°40'917.1
2017-Jun-22 15:30N 55°54' E 012°44'815.8
2017-Jun-22 15:00N 55°46' E 012°42'510.2
2017-Jun-22 14:30N 55°42' E 012°36'0 0.0
2017-Jun-22 13:30N 55°42' E 012°36'0 0.0
2017-Jun-22 13:00N 55°42' E 012°36'0 0.0
2017-Jun-22 12:30N 55°42' E 012°36'0 0.0
2017-Jun-22 12:00N 55°42' E 012°36'0 0.0
2017-Jun-22 11:30N 55°42' E 012°36'0 0.0
2017-Jun-22 11:00N 55°42' E 012°36'0 0.0
2017-Jun-22 10:30N 55°42' E 012°36'0 0.0
2017-Jun-22 10:00N 55°42' E 012°36'0 0.0
2017-Jun-22 09:30N 55°42' E 012°36'0 0.0
2017-Jun-22 09:00N 55°42' E 012°36'0 0.0
2017-Jun-22 08:30N 55°42' E 012°36'0 0.0
2017-Jun-22 08:00N 55°42' E 012°36'0 0.7
2017-Jun-22 07:30N 55°42' E 012°36'611.6
2017-Jun-22 07:00N 55°47' E 012°42'815.2
2017-Jun-22 06:30N 55°55' E 012°39'816.0
2017-Jun-22 06:00N 56°03' E 012°39'816.0
2017-Jun-22 05:30N 56°09' E 012°30'816.7
2017-Jun-22 05:00N 56°17' E 012°24'816.2
2017-Jun-22 04:30N 56°24' E 012°20'916.7
2017-Jun-22 03:58N 56°33' E 012°15'4616.5
2017-Jun-22 01:12N 57°16' E 011°49'316.2
2017-Jun-22 01:00N 57°19' E 011°46'816.2
2017-Jun-22 00:30N 57°26' E 011°39'816.5
2017-Jun-22 00:00N 57°33' E 011°31'816.8
2017-Jun-21 23:30N 57°41' E 011°24'917.0
2017-Jun-21 23:00N 57°49' E 011°18'916.8
2017-Jun-21 22:28N 57°57' E 011°12'816.5
2017-Jun-21 21:59N 58°05' E 011°08'916.7
2017-Jun-21 21:26N 58°13' E 011°03'716.4
2017-Jun-21 20:59N 58°21' E 010°59'816.5
2017-Jun-21 20:30N 58°28' E 010°55'816.1
2017-Jun-21 20:00N 58°36' E 010°51'816.2
2017-Jun-21 19:30N 58°44' E 010°47'816.5
2017-Jun-21 19:00N 58°52' E 010°44'816.9
2017-Jun-21 18:30N 59°00' E 010°41'917.0
2017-Jun-21 18:00N 59°09' E 010°39'816.7
2017-Jun-21 17:30N 59°17' E 010°36'816.4
2017-Jun-21 17:00N 59°25' E 010°33'816.1
2017-Jun-21 16:30N 59°33' E 010°36'713.1
2017-Jun-21 16:00N 59°39' E 010°37'713.1
2017-Jun-21 15:30N 59°46' E 010°33'815.8
2017-Jun-21 15:00N 59°53' E 010°39'3 5.9
2017-Jun-21 14:30N 59°54' E 010°45'0 0.0
2017-Jun-21 13:28N 59°54' E 010°45'0 0.0
2017-Jun-21 12:58N 59°54' E 010°45'0 0.0
2017-Jun-21 12:28N 59°54' E 010°45'0 0.0
2017-Jun-21 11:58N 59°54' E 010°45'0 0.0
2017-Jun-21 11:28N 59°54' E 010°45'0 0.0
2017-Jun-21 10:58N 59°54' E 010°45'0 0.0
2017-Jun-21 10:28N 59°54' E 010°45'0 0.0
2017-Jun-21 09:58N 59°54' E 010°45'0 0.0
2017-Jun-21 09:28N 59°54' E 010°45'0 0.0
2017-Jun-21 08:58N 59°54' E 010°45'0 0.0
2017-Jun-21 08:28N 59°54' E 010°45'0 0.0
2017-Jun-21 07:58N 59°54' E 010°45'1 2.0
2017-Jun-21 07:30N 59°54' E 010°43'815.3
2017-Jun-21 07:00N 59°48' E 010°35'713.7
2017-Jun-21 06:30N 59°41' E 010°37'713.2
2017-Jun-21 06:00N 59°34' E 010°38'816.7
2017-Jun-21 05:30N 59°26' E 010°34'816.4
2017-Jun-21 05:00N 59°18' E 010°36'816.2
2017-Jun-21 04:30N 59°10' E 010°39'816.0
2017-Jun-21 04:00N 59°02' E 010°42'816.3
2017-Jun-21 03:30N 58°54' E 010°44'816.3
2017-Jun-21 03:00N 58°46' E 010°47'816.7
2017-Jun-21 02:30N 58°38' E 010°50'816.9
2017-Jun-21 02:00N 58°30' E 010°52'917.2
2017-Jun-21 01:30N 58°21' E 010°57'917.2
2017-Jun-21 01:00N 58°13' E 011°02'917.1
2017-Jun-21 00:30N 58°05' E 011°06'917.1
2017-Jun-20 23:59N 57°56' E 011°11'816.4
2017-Jun-20 23:30N 57°49' E 011°15'816.4
2017-Jun-20 23:00N 57°41' E 011°20'816.5
2017-Jun-20 22:30N 57°33' E 011°25'816.3
2017-Jun-20 22:00N 57°25' E 011°29'816.3
2017-Jun-20 21:30N 57°18' E 011°34'816.5
2017-Jun-20 21:00N 57°10' E 011°38'916.3
2017-Jun-20 20:29N 57°02' E 011°43'5615.7
2017-Jun-20 16:57N 56°12' E 012°28'715.4
2017-Jun-20 16:30N 56°06' E 012°35'714.1
2017-Jun-20 16:00N 56°00' E 012°41'714.9
2017-Jun-20 15:30N 55°53' E 012°44'714.4
2017-Jun-20 15:00N 55°46' E 012°41'5 4.8
2017-Jun-20 14:01N 55°42' E 012°36'0 0.0
2017-Jun-20 13:31N 55°42' E 012°36'0 0.0
2017-Jun-20 12:58N 55°42' E 012°36'0 0.0
2017-Jun-20 12:31N 55°42' E 012°36'0 0.0
2017-Jun-20 12:01N 55°42' E 012°36'0 0.0
2017-Jun-20 11:31N 55°42' E 012°36'0 0.0
2017-Jun-20 11:01N 55°42' E 012°36'0 0.0
2017-Jun-20 10:31N 55°42' E 012°36'0 0.0
2017-Jun-20 10:01N 55°42' E 012°36'0 0.0
2017-Jun-20 09:31N 55°42' E 012°36'0 0.0
2017-Jun-20 09:01N 55°42' E 012°36'0 0.0
2017-Jun-20 08:31N 55°42' E 012°36'0 0.0
2017-Jun-20 08:01N 55°42' E 012°36'0 0.6
2017-Jun-20 07:30N 55°42' E 012°36'611.1
2017-Jun-20 07:00N 55°47' E 012°42'815.1
2017-Jun-20 06:30N 55°54' E 012°39'815.5
2017-Jun-20 06:00N 56°02' E 012°39'815.6
2017-Jun-20 05:30N 56°08' E 012°30'815.7
2017-Jun-20 05:00N 56°15' E 012°25'815.5
2017-Jun-20 04:30N 56°23' E 012°21'815.9
2017-Jun-20 04:00N 56°31' E 012°18'4716.9
2017-Jun-20 01:15N 57°15' E 011°51'516.6
2017-Jun-20 00:57N 57°19' E 011°46'817.0
2017-Jun-20 00:30N 57°25' E 011°38'817.0
2017-Jun-20 00:01N 57°32' E 011°31'816.9
2017-Jun-19 23:31N 57°40' E 011°24'917.4
2017-Jun-19 23:00N 57°48' E 011°17'917.8
2017-Jun-19 22:30N 57°56' E 011°11'917.1
2017-Jun-19 21:59N 58°05' E 011°05'816.3
2017-Jun-19 21:30N 58°12' E 010°60'815.8
2017-Jun-19 21:00N 58°20' E 010°58'815.9
2017-Jun-19 20:30N 58°28' E 010°55'816.1
2017-Jun-19 20:00N 58°35' E 010°51'816.1
2017-Jun-19 19:30N 58°43' E 010°47'816.2
2017-Jun-19 19:00N 58°51' E 010°44'816.0
2017-Jun-19 18:30N 58°59' E 010°41'816.2
2017-Jun-19 18:00N 59°07' E 010°39'816.8
2017-Jun-19 17:30N 59°15' E 010°37'816.1
2017-Jun-19 17:00N 59°23' E 010°33'815.4
2017-Jun-19 16:30N 59°31' E 010°35'612.1
2017-Jun-19 16:00N 59°37' E 010°37'713.3
2017-Jun-19 15:30N 59°43' E 010°34'815.4
2017-Jun-19 15:01N 59°51' E 010°35'6 5.7
2017-Jun-19 14:00N 59°54' E 010°45'0 0.0
2017-Jun-19 13:29N 59°54' E 010°45'0 0.0
2017-Jun-19 12:59N 59°54' E 010°45'0 0.0
2017-Jun-19 12:29N 59°54' E 010°45'0 0.0
2017-Jun-19 11:59N 59°54' E 010°45'0 0.0
2017-Jun-19 11:29N 59°54' E 010°45'0 0.0
2017-Jun-19 10:59N 59°54' E 010°45'0 0.0
2017-Jun-19 10:29N 59°54' E 010°45'0 0.0
2017-Jun-19 09:59N 59°54' E 010°45'0 0.0
2017-Jun-19 09:29N 59°54' E 010°45'0 0.0
2017-Jun-19 08:59N 59°54' E 010°45'0 0.0
2017-Jun-19 08:29N 59°54' E 010°45'0 0.0
2017-Jun-19 07:59N 59°54' E 010°45'0 0.6
2017-Jun-19 07:30N 59°54' E 010°44'713.9
2017-Jun-19 07:00N 59°49' E 010°35'715.0
2017-Jun-19 06:30N 59°42' E 010°36'713.5
2017-Jun-19 06:00N 59°35' E 010°38'815.9
2017-Jun-19 05:31N 59°27' E 010°34'816.0
2017-Jun-19 05:00N 59°19' E 010°36'816.3
2017-Jun-19 04:30N 59°11' E 010°39'816.0
2017-Jun-19 04:00N 59°03' E 010°41'816.1
2017-Jun-19 03:30N 58°55' E 010°43'815.6
2017-Jun-19 03:00N 58°48' E 010°44'815.9
2017-Jun-19 02:30N 58°40' E 010°46'816.0
2017-Jun-19 02:00N 58°32' E 010°51'816.5
2017-Jun-19 01:30N 58°24' E 010°55'816.5
2017-Jun-19 01:00N 58°16' E 010°60'816.4
2017-Jun-19 00:30N 58°09' E 011°05'816.7
2017-Jun-19 00:00N 58°01' E 011°10'815.9
2017-Jun-18 23:30N 57°53' E 011°14'815.8
2017-Jun-18 23:00N 57°45' E 011°19'815.5
2017-Jun-18 22:31N 57°38' E 011°23'816.5
2017-Jun-18 22:00N 57°30' E 011°27'816.4
2017-Jun-18 21:30N 57°22' E 011°31'816.1
2017-Jun-18 21:00N 57°15' E 011°37'816.3
2017-Jun-18 20:30N 57°07' E 011°41'816.8
2017-Jun-18 20:01N 56°59' E 011°46'4915.8
2017-Jun-18 16:55N 56°15' E 012°26'615.6
2017-Jun-18 16:30N 56°10' E 012°31'815.2
2017-Jun-18 16:00N 56°04' E 012°39'815.4
2017-Jun-18 15:31N 55°56' E 012°43'815.3
2017-Jun-18 15:01N 55°49' E 012°43'8 7.5
2017-Jun-18 13:59N 55°42' E 012°36'0 0.0
2017-Jun-18 13:29N 55°42' E 012°36'0 0.0
2017-Jun-18 12:59N 55°42' E 012°36'0 0.0
2017-Jun-18 12:29N 55°42' E 012°36'0 0.0
2017-Jun-18 11:59N 55°42' E 012°36'0 0.0
2017-Jun-18 11:29N 55°42' E 012°36'0 0.0
2017-Jun-18 10:59N 55°42' E 012°36'0 0.0
2017-Jun-18 10:29N 55°42' E 012°36'0 0.0
2017-Jun-18 09:59N 55°42' E 012°36'0 0.0
2017-Jun-18 09:29N 55°42' E 012°36'0 0.0
2017-Jun-18 08:59N 55°42' E 012°36'0 0.0
2017-Jun-18 08:29N 55°42' E 012°36'0 0.0
2017-Jun-18 07:59N 55°42' E 012°36'0 0.7
2017-Jun-18 07:30N 55°42' E 012°36'511.0
2017-Jun-18 07:00N 55°47' E 012°42'714.3
2017-Jun-18 06:30N 55°54' E 012°39'714.7
2017-Jun-18 06:00N 56°01' E 012°40'815.8
2017-Jun-18 05:30N 56°07' E 012°31'815.8
2017-Jun-18 05:00N 56°15' E 012°25'815.9
2017-Jun-18 04:30N 56°22' E 012°20'815.8
2017-Jun-18 04:00N 56°30' E 012°16'4917.1
2017-Jun-18 01:11N 57°16' E 011°49'318.1
2017-Jun-18 01:00N 57°19' E 011°46'918.3
2017-Jun-18 00:30N 57°26' E 011°37'918.0
2017-Jun-18 00:00N 57°34' E 011°28'917.9
2017-Jun-17 23:30N 57°42' E 011°22'918.0
2017-Jun-17 22:59N 57°51' E 011°16'817.2
2017-Jun-17 22:29N 57°59' E 011°11'916.8
2017-Jun-17 21:59N 58°07' E 011°06'916.5
2017-Jun-17 21:27N 58°16' E 011°02'715.5
2017-Jun-17 21:00N 58°22' E 010°58'815.4
2017-Jun-17 20:30N 58°30' E 010°54'815.8
2017-Jun-17 20:00N 58°37' E 010°50'816.0
2017-Jun-17 19:30N 58°45' E 010°47'816.4
2017-Jun-17 19:00N 58°53' E 010°44'816.7
2017-Jun-17 18:30N 59°01' E 010°41'816.5
2017-Jun-17 18:00N 59°10' E 010°38'816.4
2017-Jun-17 17:30N 59°18' E 010°36'816.4
2017-Jun-17 17:00N 59°26' E 010°33'816.2
2017-Jun-17 16:30N 59°34' E 010°37'612.9
2017-Jun-17 16:00N 59°40' E 010°37'715.0
2017-Jun-17 15:31N 59°47' E 010°34'815.2
2017-Jun-17 15:00N 59°54' E 010°42'2 3.0
2017-Jun-17 14:29N 59°54' E 010°45'0 0.0
2017-Jun-17 13:30N 59°54' E 010°45'0 0.0
2017-Jun-17 13:00N 59°54' E 010°45'0 0.0
2017-Jun-17 12:30N 59°54' E 010°45'0 0.0
2017-Jun-17 12:00N 59°54' E 010°45'0 0.0
2017-Jun-17 11:30N 59°54' E 010°45'0 0.0
2017-Jun-17 11:00N 59°54' E 010°45'0 0.0
2017-Jun-17 10:30N 59°54' E 010°45'0 0.0
2017-Jun-17 10:00N 59°54' E 010°45'0 0.0
2017-Jun-17 09:30N 59°54' E 010°45'0 0.0
2017-Jun-17 09:00N 59°54' E 010°45'0 0.0
2017-Jun-17 08:30N 59°54' E 010°45'0 0.0
2017-Jun-17 08:00N 59°54' E 010°45'0 0.4
2017-Jun-17 07:30N 59°54' E 010°44'713.1
2017-Jun-17 07:01N 59°49' E 010°35'815.1
2017-Jun-17 06:30N 59°42' E 010°36'713.4
2017-Jun-17 06:00N 59°35' E 010°38'714.2
2017-Jun-17 05:30N 59°28' E 010°34'815.3
2017-Jun-17 05:00N 59°21' E 010°36'815.3
2017-Jun-17 04:30N 59°13' E 010°38'815.9
2017-Jun-17 04:00N 59°05' E 010°41'816.0
2017-Jun-17 03:30N 58°57' E 010°43'815.0
2017-Jun-17 03:00N 58°50' E 010°45'815.3
2017-Jun-17 02:30N 58°42' E 010°47'815.3
2017-Jun-17 02:00N 58°35' E 010°49'815.8
2017-Jun-17 01:30N 58°27' E 010°54'816.1
2017-Jun-17 01:00N 58°20' E 010°59'816.2
2017-Jun-17 00:30N 58°12' E 011°03'816.7
2017-Jun-17 00:00N 58°04' E 011°08'816.2
2017-Jun-16 23:30N 57°56' E 011°12'815.5
2017-Jun-16 22:59N 57°48' E 011°17'  
Track history (hours):
 
Tides and Currents Weather Stations Pressure Air Temp Water Temp Dewpoint Dewpoint Depression Visibility Wind Speed Wind Dir Waves Ship Positions

Pearl Of Scandinavia

Last reported at 2017-Jun-26 22:30 UTC. Time now 2017-Jun-26 22:32 UTC.
Position N 57°29' E 011°27'.

Length 176.4 m; beam 34 m; draft 6.215 m.

Type: Ship. MMSI: 219945000.

Date/timePositionNaut miles runAvg speedWind from/ knotsBaromVisibWave heightAir tempDewpointWater temp
2017-Jun-26 22:30N 57°29' E 011°27'917.0
2017-Jun-26 22:00N 57°21' E 011°32'817.1
2017-Jun-26 21:30N 57°13' E 011°36'816.5
2017-Jun-26 21:00N 57°05' E 011°41'5915.0
2017-Jun-26 17:06N 56°13' E 012°29'115.0
2017-Jun-26 17:00N 56°12' E 012°30'714.7
2017-Jun-26 16:30N 56°05' E 012°36'713.8
2017-Jun-26 16:01N 55°59' E 012°42'715.0
2017-Jun-26 15:31N 55°52' E 012°45'714.4
2017-Jun-26 15:01N 55°45' E 012°41'4 7.0
2017-Jun-26 14:28N 55°42' E 012°36'0 0.0
2017-Jun-26 13:28N 55°42' E 012°36'0 0.0
2017-Jun-26 12:58N 55°42' E 012°36'0 0.0
2017-Jun-26 12:28N 55°42' E 012°36'0 0.0
2017-Jun-26 11:58N 55°42' E 012°36'0 0.0
2017-Jun-26 11:28N 55°42' E 012°36'0 0.0
2017-Jun-26 10:58N 55°42' E 012°36'0 0.0
2017-Jun-26 10:28N 55°42' E 012°36'0 0.0
2017-Jun-26 09:58N 55°42' E 012°36'0 0.0
2017-Jun-26 09:28N 55°42' E 012°36'0 0.0
2017-Jun-26 08:58N 55°42' E 012°36'0 0.0
2017-Jun-26 08:28N 55°42' E 012°36'0 0.0
2017-Jun-26 07:58N 55°42' E 012°36'0 0.7
2017-Jun-26 07:31N 55°42' E 012°36'510.1
2017-Jun-26 07:00N 55°46' E 012°41'714.7
2017-Jun-26 06:30N 55°54' E 012°40'815.3
2017-Jun-26 06:00N 56°01' E 012°40'816.6
2017-Jun-26 05:30N 56°08' E 012°30'816.0
2017-Jun-26 05:00N 56°15' E 012°25'815.7
2017-Jun-26 04:30N 56°23' E 012°20'915.8
2017-Jun-26 03:55N 56°32' E 012°15'4516.4
2017-Jun-26 01:12N 57°14' E 011°52'517.3
2017-Jun-26 00:56N 57°18' E 011°47'817.7
2017-Jun-26 00:30N 57°25' E 011°40'917.3
2017-Jun-26 00:00N 57°32' E 011°32'917.1
2017-Jun-25 23:31N 57°40' E 011°26'816.9
2017-Jun-25 23:00N 57°48' E 011°20'816.8
2017-Jun-25 22:30N 57°56' E 011°15'815.9
2017-Jun-25 22:00N 58°03' E 011°09'815.7
2017-Jun-25 21:30N 58°11' E 011°04'816.1
2017-Jun-25 21:00N 58°19' E 011°00'815.3
2017-Jun-25 20:30N 58°26' E 010°56'1614.3
2017-Jun-25 19:23N 58°41' E 010°48'514.5
2017-Jun-25 19:00N 58°47' E 010°46'714.5
2017-Jun-25 18:31N 58°54' E 010°43'714.8
2017-Jun-25 18:01N 59°01' E 010°42'815.4
2017-Jun-25 17:31N 59°09' E 010°39'816.6
2017-Jun-25 17:01N 59°17' E 010°36'816.9
2017-Jun-25 16:31N 59°25' E 010°33'816.3
2017-Jun-25 16:01N 59°33' E 010°37'815.2
2017-Jun-25 15:30N 59°41' E 010°37'714.8
2017-Jun-25 15:01N 59°48' E 010°34'814.9
2017-Jun-25 14:30N 59°54' E 010°43'1 0.9
2017-Jun-25 13:28N 59°54' E 010°45'0 0.0
2017-Jun-25 12:58N 59°54' E 010°45'0 0.0
2017-Jun-25 12:28N 59°54' E 010°45'0 0.0
2017-Jun-25 11:58N 59°54' E 010°45'0 0.0
2017-Jun-25 11:28N 59°54' E 010°45'0 0.0
2017-Jun-25 10:58N 59°54' E 010°45'0 0.0
2017-Jun-25 10:28N 59°54' E 010°45'0 0.0
2017-Jun-25 09:58N 59°54' E 010°45'0 0.0
2017-Jun-25 09:28N 59°54' E 010°45'0 0.0
2017-Jun-25 08:58N 59°54' E 010°45'0 0.0
2017-Jun-25 08:28N 59°54' E 010°45'0 0.0
2017-Jun-25 07:58N 59°54' E 010°45'1 1.3
2017-Jun-25 07:30N 59°54' E 010°44'611.7
2017-Jun-25 07:00N 59°50' E 010°36'714.3
2017-Jun-25 06:30N 59°43' E 010°36'713.8
2017-Jun-25 06:00N 59°36' E 010°38'714.9
2017-Jun-25 05:30N 59°29' E 010°34'816.3
2017-Jun-25 05:00N 59°21' E 010°36'917.1
2017-Jun-25 04:30N 59°12' E 010°39'816.6
2017-Jun-25 04:00N 59°04' E 010°41'816.4
2017-Jun-25 03:30N 58°56' E 010°44'816.2
2017-Jun-25 03:00N 58°48' E 010°46'816.1
2017-Jun-25 02:30N 58°40' E 010°49'816.2
2017-Jun-25 02:00N 58°32' E 010°51'816.8
2017-Jun-25 01:30N 58°24' E 010°56'917.1
2017-Jun-25 01:00N 58°16' E 011°01'917.0
2017-Jun-25 00:30N 58°07' E 011°06'816.4
2017-Jun-25 00:00N 57°60' E 011°10'816.1
2017-Jun-24 23:30N 57°52' E 011°15'815.8
2017-Jun-24 22:59N 57°44' E 011°19'816.4
2017-Jun-24 22:30N 57°37' E 011°24'816.3
2017-Jun-24 22:00N 57°29' E 011°28'816.3
2017-Jun-24 21:30N 57°21' E 011°33'816.6
2017-Jun-24 21:00N 57°13' E 011°37'816.3
2017-Jun-24 20:30N 57°05' E 011°42'5816.0
2017-Jun-24 16:53N 56°13' E 012°28'616.3
2017-Jun-24 16:30N 56°08' E 012°32'815.1
2017-Jun-24 16:00N 56°02' E 012°40'816.2
2017-Jun-24 15:30N 55°54' E 012°44'815.5
2017-Jun-24 15:00N 55°46' E 012°42'5 5.2
2017-Jun-24 14:00N 55°42' E 012°36'0 0.0
2017-Jun-24 13:30N 55°42' E 012°36'0 0.0
2017-Jun-24 13:00N 55°42' E 012°36'0 0.0
2017-Jun-24 12:30N 55°42' E 012°36'0 0.0
2017-Jun-24 12:00N 55°42' E 012°36'0 0.0
2017-Jun-24 11:30N 55°42' E 012°36'0 0.0
2017-Jun-24 11:00N 55°42' E 012°36'0 0.0
2017-Jun-24 10:30N 55°42' E 012°36'0 0.0
2017-Jun-24 10:00N 55°42' E 012°36'0 0.0
2017-Jun-24 09:30N 55°42' E 012°36'0 0.0
2017-Jun-24 09:00N 55°42' E 012°36'0 0.0
2017-Jun-24 08:30N 55°42' E 012°36'0 0.0
2017-Jun-24 08:00N 55°42' E 012°36'0 0.6
2017-Jun-24 07:31N 55°42' E 012°36'611.5
2017-Jun-24 07:00N 55°47' E 012°42'714.9
2017-Jun-24 06:30N 55°55' E 012°39'815.2
2017-Jun-24 06:00N 56°02' E 012°39'815.7
2017-Jun-24 05:30N 56°08' E 012°30'815.5
2017-Jun-24 05:00N 56°15' E 012°25'816.2
2017-Jun-24 04:30N 56°23' E 012°20'816.1
2017-Jun-24 04:00N 56°31' E 012°16'4716.0
2017-Jun-24 01:04N 57°15' E 011°49'116.6
2017-Jun-24 00:59N 57°17' E 011°48'816.4
2017-Jun-24 00:30N 57°23' E 011°40'816.4
2017-Jun-24 00:00N 57°30' E 011°32'816.7
2017-Jun-23 23:30N 57°38' E 011°26'816.9
2017-Jun-23 23:00N 57°46' E 011°20'917.0
2017-Jun-23 22:30N 57°54' E 011°14'1017.3
2017-Jun-23 21:56N 58°03' E 011°09'817.5
2017-Jun-23 21:28N 58°11' E 011°05'816.9
2017-Jun-23 21:00N 58°18' E 011°01'916.0
2017-Jun-23 20:25N 58°27' E 010°55'615.7
2017-Jun-23 20:00N 58°34' E 010°52'816.3
2017-Jun-23 19:30N 58°41' E 010°48'816.6
2017-Jun-23 19:00N 58°50' E 010°44'817.0
2017-Jun-23 18:30N 58°58' E 010°41'816.9
2017-Jun-23 18:00N 59°06' E 010°39'917.1
2017-Jun-23 17:30N 59°15' E 010°37'917.1
2017-Jun-23 17:00N 59°23' E 010°33'816.6
2017-Jun-23 16:30N 59°31' E 010°35'713.8
2017-Jun-23 16:00N 59°38' E 010°37'713.6
2017-Jun-23 15:30N 59°45' E 010°33'816.0
2017-Jun-23 15:00N 59°52' E 010°38'4 3.7
2017-Jun-23 14:00N 59°54' E 010°45'0 0.0
2017-Jun-23 13:30N 59°54' E 010°45'0 0.0
2017-Jun-23 13:00N 59°54' E 010°45'0 0.0
2017-Jun-23 12:30N 59°54' E 010°45'0 0.0
2017-Jun-23 12:00N 59°54' E 010°45'0 0.0
2017-Jun-23 11:30N 59°54' E 010°45'0 0.0
2017-Jun-23 11:00N 59°54' E 010°45'0 0.0
2017-Jun-23 10:30N 59°54' E 010°45'0 0.0
2017-Jun-23 10:00N 59°54' E 010°45'0 0.0
2017-Jun-23 09:30N 59°54' E 010°45'0 0.0
2017-Jun-23 09:00N 59°54' E 010°45'0 0.0
2017-Jun-23 08:30N 59°54' E 010°45'0 0.0
2017-Jun-23 08:00N 59°54' E 010°45'0 1.0
2017-Jun-23 07:30N 59°54' E 010°44'714.5
2017-Jun-23 07:00N 59°49' E 010°35'714.8
2017-Jun-23 06:30N 59°41' E 010°36'713.2
2017-Jun-23 06:00N 59°35' E 010°38'815.9
2017-Jun-23 05:30N 59°27' E 010°34'816.1
2017-Jun-23 05:00N 59°19' E 010°36'816.3
2017-Jun-23 04:30N 59°11' E 010°39'815.9
2017-Jun-23 04:00N 59°03' E 010°38'815.7
2017-Jun-23 03:30N 58°55' E 010°36'815.9
2017-Jun-23 03:00N 58°47' E 010°35'816.5
2017-Jun-23 02:30N 58°39' E 010°33'816.6
2017-Jun-23 02:00N 58°31' E 010°37'916.8
2017-Jun-23 01:27N 58°22' E 010°42'1716.3
2017-Jun-23 00:25N 58°06' E 010°52'716.5
2017-Jun-22 23:59N 57°60' E 010°57'916.2
2017-Jun-22 23:26N 57°51' E 011°02'716.2
2017-Jun-22 22:59N 57°44' E 011°07'815.9
2017-Jun-22 22:30N 57°38' E 011°15'816.3
2017-Jun-22 22:00N 57°32' E 011°25'816.2
2017-Jun-22 21:30N 57°24' E 011°30'816.3
2017-Jun-22 21:01N 57°17' E 011°36'916.4
2017-Jun-22 20:29N 57°09' E 011°41'816.5
2017-Jun-22 20:01N 57°01' E 011°45'916.4
2017-Jun-22 19:28N 56°53' E 011°51'816.8
2017-Jun-22 19:00N 56°46' E 011°59'916.3
2017-Jun-22 18:27N 56°38' E 012°07'716.4
2017-Jun-22 18:00N 56°32' E 012°13'1016.3
2017-Jun-22 17:25N 56°23' E 012°20'916.7
2017-Jun-22 16:54N 56°15' E 012°26'716.6
2017-Jun-22 16:30N 56°09' E 012°31'917.6
2017-Jun-22 16:00N 56°02' E 012°40'917.1
2017-Jun-22 15:30N 55°54' E 012°44'815.8
2017-Jun-22 15:00N 55°46' E 012°42'510.2
2017-Jun-22 14:30N 55°42' E 012°36'0 0.0
2017-Jun-22 13:30N 55°42' E 012°36'0 0.0
2017-Jun-22 13:00N 55°42' E 012°36'0 0.0
2017-Jun-22 12:30N 55°42' E 012°36'0 0.0
2017-Jun-22 12:00N 55°42' E 012°36'0 0.0
2017-Jun-22 11:30N 55°42' E 012°36'0 0.0
2017-Jun-22 11:00N 55°42' E 012°36'0 0.0
2017-Jun-22 10:30N 55°42' E 012°36'0 0.0
2017-Jun-22 10:00N 55°42' E 012°36'0 0.0
2017-Jun-22 09:30N 55°42' E 012°36'0 0.0
2017-Jun-22 09:00N 55°42' E 012°36'0 0.0
2017-Jun-22 08:30N 55°42' E 012°36'0 0.0
2017-Jun-22 08:00N 55°42' E 012°36'0 0.7
2017-Jun-22 07:30N 55°42' E 012°36'611.6
2017-Jun-22 07:00N 55°47' E 012°42'815.2
2017-Jun-22 06:30N 55°55' E 012°39'816.0
2017-Jun-22 06:00N 56°03' E 012°39'816.0
2017-Jun-22 05:30N 56°09' E 012°30'816.7
2017-Jun-22 05:00N 56°17' E 012°24'816.2
2017-Jun-22 04:30N 56°24' E 012°20'916.7
2017-Jun-22 03:58N 56°33' E 012°15'4616.5
2017-Jun-22 01:12N 57°16' E 011°49'316.2
2017-Jun-22 01:00N 57°19' E 011°46'816.2
2017-Jun-22 00:30N 57°26' E 011°39'816.5
2017-Jun-22 00:00N 57°33' E 011°31'816.8
2017-Jun-21 23:30N 57°41' E 011°24'917.0
2017-Jun-21 23:00N 57°49' E 011°18'916.8
2017-Jun-21 22:28N 57°57' E 011°12'816.5
2017-Jun-21 21:59N 58°05' E 011°08'916.7
2017-Jun-21 21:26N 58°13' E 011°03'716.4
2017-Jun-21 20:59N 58°21' E 010°59'816.5
2017-Jun-21 20:30N 58°28' E 010°55'816.1
2017-Jun-21 20:00N 58°36' E 010°51'816.2
2017-Jun-21 19:30N 58°44' E 010°47'816.5
2017-Jun-21 19:00N 58°52' E 010°44'816.9
2017-Jun-21 18:30N 59°00' E 010°41'917.0
2017-Jun-21 18:00N 59°09' E 010°39'816.7
2017-Jun-21 17:30N 59°17' E 010°36'816.4
2017-Jun-21 17:00N 59°25' E 010°33'816.1
2017-Jun-21 16:30N 59°33' E 010°36'713.1
2017-Jun-21 16:00N 59°39' E 010°37'713.1
2017-Jun-21 15:30N 59°46' E 010°33'815.8
2017-Jun-21 15:00N 59°53' E 010°39'3 5.9
2017-Jun-21 14:30N 59°54' E 010°45'0 0.0
2017-Jun-21 13:28N 59°54' E 010°45'0 0.0
2017-Jun-21 12:58N 59°54' E 010°45'0 0.0
2017-Jun-21 12:28N 59°54' E 010°45'0 0.0
2017-Jun-21 11:58N 59°54' E 010°45'0 0.0
2017-Jun-21 11:28N 59°54' E 010°45'0 0.0
2017-Jun-21 10:58N 59°54' E 010°45'0 0.0
2017-Jun-21 10:28N 59°54' E 010°45'0 0.0
2017-Jun-21 09:58N 59°54' E 010°45'0 0.0
2017-Jun-21 09:28N 59°54' E 010°45'0 0.0
2017-Jun-21 08:58N 59°54' E 010°45'0 0.0
2017-Jun-21 08:28N 59°54' E 010°45'0 0.0
2017-Jun-21 07:58N 59°54' E 010°45'1 2.0
2017-Jun-21 07:30N 59°54' E 010°43'815.3
2017-Jun-21 07:00N 59°48' E 010°35'713.7
2017-Jun-21 06:30N 59°41' E 010°37'713.2
2017-Jun-21 06:00N 59°34' E 010°38'816.7
2017-Jun-21 05:30N 59°26' E 010°34'816.4
2017-Jun-21 05:00N 59°18' E 010°36'816.2
2017-Jun-21 04:30N 59°10' E 010°39'816.0
2017-Jun-21 04:00N 59°02' E 010°42'816.3
2017-Jun-21 03:30N 58°54' E 010°44'816.3
2017-Jun-21 03:00N 58°46' E 010°47'816.7
2017-Jun-21 02:30N 58°38' E 010°50'816.9
2017-Jun-21 02:00N 58°30' E 010°52'917.2
2017-Jun-21 01:30N 58°21' E 010°57'917.2
2017-Jun-21 01:00N 58°13' E 011°02'917.1
2017-Jun-21 00:30N 58°05' E 011°06'917.1
2017-Jun-20 23:59N 57°56' E 011°11'816.4
2017-Jun-20 23:30N 57°49' E 011°15'816.4
2017-Jun-20 23:00N 57°41' E 011°20'816.5
2017-Jun-20 22:30N 57°33' E 011°25'816.3
2017-Jun-20 22:00N 57°25' E 011°29'816.3
2017-Jun-20 21:30N 57°18' E 011°34'816.5
2017-Jun-20 21:00N 57°10' E 011°38'916.3
2017-Jun-20 20:29N 57°02' E 011°43'5615.7
2017-Jun-20 16:57N 56°12' E 012°28'715.4
2017-Jun-20 16:30N 56°06' E 012°35'714.1
2017-Jun-20 16:00N 56°00' E 012°41'714.9
2017-Jun-20 15:30N 55°53' E 012°44'714.4
2017-Jun-20 15:00N 55°46' E 012°41'5 4.8
2017-Jun-20 14:01N 55°42' E 012°36'0 0.0
2017-Jun-20 13:31N 55°42' E 012°36'0 0.0
2017-Jun-20 12:58N 55°42' E 012°36'0 0.0
2017-Jun-20 12:31N 55°42' E 012°36'0 0.0
2017-Jun-20 12:01N 55°42' E 012°36'0 0.0
2017-Jun-20 11:31N 55°42' E 012°36'0 0.0
2017-Jun-20 11:01N 55°42' E 012°36'0 0.0
2017-Jun-20 10:31N 55°42' E 012°36'0 0.0
2017-Jun-20 10:01N 55°42' E 012°36'0 0.0
2017-Jun-20 09:31N 55°42' E 012°36'0 0.0
2017-Jun-20 09:01N 55°42' E 012°36'0 0.0
2017-Jun-20 08:31N 55°42' E 012°36'0 0.0
2017-Jun-20 08:01N 55°42' E 012°36'0 0.6
2017-Jun-20 07:30N 55°42' E 012°36'611.1
2017-Jun-20 07:00N 55°47' E 012°42'815.1
2017-Jun-20 06:30N 55°54' E 012°39'815.5
2017-Jun-20 06:00N 56°02' E 012°39'815.6
2017-Jun-20 05:30N 56°08' E 012°30'815.7
2017-Jun-20 05:00N 56°15' E 012°25'815.5
2017-Jun-20 04:30N 56°23' E 012°21'815.9
2017-Jun-20 04:00N 56°31' E 012°18'4716.9
2017-Jun-20 01:15N 57°15' E 011°51'516.6
2017-Jun-20 00:57N 57°19' E 011°46'817.0
2017-Jun-20 00:30N 57°25' E 011°38'817.0
2017-Jun-20 00:01N 57°32' E 011°31'816.9
2017-Jun-19 23:31N 57°40' E 011°24'917.4
2017-Jun-19 23:00N 57°48' E 011°17'917.8
2017-Jun-19 22:30N 57°56' E 011°11'917.1
2017-Jun-19 21:59N 58°05' E 011°05'816.3
2017-Jun-19 21:30N 58°12' E 010°60'815.8
2017-Jun-19 21:00N 58°20' E 010°58'815.9
2017-Jun-19 20:30N 58°28' E 010°55'816.1
2017-Jun-19 20:00N 58°35' E 010°51'816.1
2017-Jun-19 19:30N 58°43' E 010°47'816.2
2017-Jun-19 19:00N 58°51' E 010°44'816.0
2017-Jun-19 18:30N 58°59' E 010°41'816.2
2017-Jun-19 18:00N 59°07' E 010°39'816.8
2017-Jun-19 17:30N 59°15' E 010°37'816.1
2017-Jun-19 17:00N 59°23' E 010°33'815.4
2017-Jun-19 16:30N 59°31' E 010°35'612.1
2017-Jun-19 16:00N 59°37' E 010°37'713.3
2017-Jun-19 15:30N 59°43' E 010°34'815.4
2017-Jun-19 15:01N 59°51' E 010°35'6 5.7
2017-Jun-19 14:00N 59°54' E 010°45'0 0.0
2017-Jun-19 13:29N 59°54' E 010°45'0 0.0
2017-Jun-19 12:59N 59°54' E 010°45'0 0.0
2017-Jun-19 12:29N 59°54' E 010°45'0 0.0
2017-Jun-19 11:59N 59°54' E 010°45'0 0.0
2017-Jun-19 11:29N 59°54' E 010°45'0 0.0
2017-Jun-19 10:59N 59°54' E 010°45'0 0.0
2017-Jun-19 10:29N 59°54' E 010°45'0 0.0
2017-Jun-19 09:59N 59°54' E 010°45'0 0.0
2017-Jun-19 09:29N 59°54' E 010°45'0 0.0
2017-Jun-19 08:59N 59°54' E 010°45'0 0.0
2017-Jun-19 08:29N 59°54' E 010°45'0 0.0
2017-Jun-19 07:59N 59°54' E 010°45'0 0.6
2017-Jun-19 07:30N 59°54' E 010°44'713.9
2017-Jun-19 07:00N 59°49' E 010°35'715.0
2017-Jun-19 06:30N 59°42' E 010°36'713.5
2017-Jun-19 06:00N 59°35' E 010°38'815.9
2017-Jun-19 05:31N 59°27' E 010°34'816.0
2017-Jun-19 05:00N 59°19' E 010°36'816.3
2017-Jun-19 04:30N 59°11' E 010°39'816.0
2017-Jun-19 04:00N 59°03' E 010°41'816.1
2017-Jun-19 03:30N 58°55' E 010°43'815.6
2017-Jun-19 03:00N 58°48' E 010°44'815.9
2017-Jun-19 02:30N 58°40' E 010°46'816.0
2017-Jun-19 02:00N 58°32' E 010°51'816.5
2017-Jun-19 01:30N 58°24' E 010°55'816.5
2017-Jun-19 01:00N 58°16' E 010°60'816.4
2017-Jun-19 00:30N 58°09' E 011°05'816.7
2017-Jun-19 00:00N 58°01' E 011°10'815.9
2017-Jun-18 23:30N 57°53' E 011°14'815.8
2017-Jun-18 23:00N 57°45' E 011°19'815.5
2017-Jun-18 22:31N 57°38' E 011°23'816.5
2017-Jun-18 22:00N 57°30' E 011°27'816.4
2017-Jun-18 21:30N 57°22' E 011°31'816.1
2017-Jun-18 21:00N 57°15' E 011°37'816.3
2017-Jun-18 20:30N 57°07' E 011°41'816.8
2017-Jun-18 20:01N 56°59' E 011°46'4915.8
2017-Jun-18 16:55N 56°15' E 012°26'615.6
2017-Jun-18 16:30N 56°10' E 012°31'815.2
2017-Jun-18 16:00N 56°04' E 012°39'815.4
2017-Jun-18 15:31N 55°56' E 012°43'815.3
2017-Jun-18 15:01N 55°49' E 012°43'8 7.5
2017-Jun-18 13:59N 55°42' E 012°36'0 0.0
2017-Jun-18 13:29N 55°42' E 012°36'0 0.0
2017-Jun-18 12:59N 55°42' E 012°36'0 0.0
2017-Jun-18 12:29N 55°42' E 012°36'0 0.0
2017-Jun-18 11:59N 55°42' E 012°36'0 0.0
2017-Jun-18 11:29N 55°42' E 012°36'0 0.0
2017-Jun-18 10:59N 55°42' E 012°36'0 0.0
2017-Jun-18 10:29N 55°42' E 012°36'0 0.0
2017-Jun-18 09:59N 55°42' E 012°36'0 0.0
2017-Jun-18 09:29N 55°42' E 012°36'0 0.0
2017-Jun-18 08:59N 55°42' E 012°36'0 0.0
2017-Jun-18 08:29N 55°42' E 012°36'0 0.0
2017-Jun-18 07:59N 55°42' E 012°36'0 0.7
2017-Jun-18 07:30N 55°42' E 012°36'511.0
2017-Jun-18 07:00N 55°47' E 012°42'714.3
2017-Jun-18 06:30N 55°54' E 012°39'714.7
2017-Jun-18 06:00N 56°01' E 012°40'815.8
2017-Jun-18 05:30N 56°07' E 012°31'815.8
2017-Jun-18 05:00N 56°15' E 012°25'815.9
2017-Jun-18 04:30N 56°22' E 012°20'815.8
2017-Jun-18 04:00N 56°30' E 012°16'4917.1
2017-Jun-18 01:11N 57°16' E 011°49'318.1
2017-Jun-18 01:00N 57°19' E 011°46'918.3
2017-Jun-18 00:30N 57°26' E 011°37'918.0
2017-Jun-18 00:00N 57°34' E 011°28'917.9
2017-Jun-17 23:30N 57°42' E 011°22'918.0
2017-Jun-17 22:59N 57°51' E 011°16'817.2
2017-Jun-17 22:29N 57°59' E 011°11'916.8
2017-Jun-17 21:59N 58°07' E 011°06'916.5
2017-Jun-17 21:27N 58°16' E 011°02'715.5
2017-Jun-17 21:00N 58°22' E 010°58'815.4
2017-Jun-17 20:30N 58°30' E 010°54'815.8
2017-Jun-17 20:00N 58°37' E 010°50'816.0
2017-Jun-17 19:30N 58°45' E 010°47'816.4
2017-Jun-17 19:00N 58°53' E 010°44'816.7
2017-Jun-17 18:30N 59°01' E 010°41'816.5
2017-Jun-17 18:00N 59°10' E 010°38'816.4
2017-Jun-17 17:30N 59°18' E 010°36'816.4
2017-Jun-17 17:00N 59°26' E 010°33'816.2
2017-Jun-17 16:30N 59°34' E 010°37'612.9
2017-Jun-17 16:00N 59°40' E 010°37'715.0
2017-Jun-17 15:31N 59°47' E 010°34'815.2
2017-Jun-17 15:00N 59°54' E 010°42'2 3.0
2017-Jun-17 14:29N 59°54' E 010°45'0 0.0
2017-Jun-17 13:30N 59°54' E 010°45'0 0.0
2017-Jun-17 13:00N 59°54' E 010°45'0 0.0
2017-Jun-17 12:30N 59°54' E 010°45'0 0.0
2017-Jun-17 12:00N 59°54' E 010°45'0 0.0
2017-Jun-17 11:30N 59°54' E 010°45'0 0.0
2017-Jun-17 11:00N 59°54' E 010°45'0 0.0
2017-Jun-17 10:30N 59°54' E 010°45'0 0.0
2017-Jun-17 10:00N 59°54' E 010°45'0 0.0
2017-Jun-17 09:30N 59°54' E 010°45'0 0.0
2017-Jun-17 09:00N 59°54' E 010°45'0 0.0
2017-Jun-17 08:30N 59°54' E 010°45'0 0.0
2017-Jun-17 08:00N 59°54' E 010°45'0 0.4
2017-Jun-17 07:30N 59°54' E 010°44'713.1
2017-Jun-17 07:01N 59°49' E 010°35'815.1
2017-Jun-17 06:30N 59°42' E 010°36'713.4
2017-Jun-17 06:00N 59°35' E 010°38'714.2
2017-Jun-17 05:30N 59°28' E 010°34'815.3
2017-Jun-17 05:00N 59°21' E 010°36'815.3
2017-Jun-17 04:30N 59°13' E 010°38'815.9
2017-Jun-17 04:00N 59°05' E 010°41'816.0
2017-Jun-17 03:30N 58°57' E 010°43'815.0
2017-Jun-17 03:00N 58°50' E 010°45'815.3
2017-Jun-17 02:30N 58°42' E 010°47'815.3
2017-Jun-17 02:00N 58°35' E 010°49'815.8
2017-Jun-17 01:30N 58°27' E 010°54'816.1
2017-Jun-17 01:00N 58°20' E 010°59'816.2
2017-Jun-17 00:30N 58°12' E 011°03'816.7
2017-Jun-17 00:00N 58°04' E 011°08'816.2
2017-Jun-16 23:30N 57°56' E 011°12'815.5
2017-Jun-16 22:59N 57°48' E 011°17'  

Dump ship's entire track history